sensor_id;sensor_type;location;lat;lon;timestamp;temperature;humidity
46490;DHT22;32204;49.160;8.580;2023-08-07T00:00:23;13.90;1.00
46490;DHT22;32204;49.160;8.580;2023-08-07T00:02:49;13.90;1.00
46490;DHT22;32204;49.160;8.580;2023-08-07T00:05:15;13.90;1.00
46490;DHT22;32204;49.160;8.580;2023-08-07T00:07:42;13.90;1.00
46490;DHT22;32204;49.160;8.580;2023-08-07T00:10:08;13.90;1.00
46490;DHT22;32204;49.160;8.580;2023-08-07T00:12:34;13.90;99.90
46490;DHT22;32204;49.160;8.580;2023-08-07T00:14:59;13.90;99.90
46490;DHT22;32204;49.160;8.580;2023-08-07T00:17:26;13.90;99.90
46490;DHT22;32204;49.160;8.580;2023-08-07T00:19:51;13.90;99.90
46490;DHT22;32204;49.160;8.580;2023-08-07T00:22:17;13.90;90.40
46490;DHT22;32204;49.160;8.580;2023-08-07T00:24:42;13.90;99.90
46490;DHT22;32204;49.160;8.580;2023-08-07T00:27:08;13.90;99.90
46490;DHT22;32204;49.160;8.580;2023-08-07T00:29:36;13.80;1.00
46490;DHT22;32204;49.160;8.580;2023-08-07T00:32:02;13.80;15.00
46490;DHT22;32204;49.160;8.580;2023-08-07T00:34:28;13.80;1.00
46490;DHT22;32204;49.160;8.580;2023-08-07T00:36:53;13.80;1.00
46490;DHT22;32204;49.160;8.580;2023-08-07T00:39:19;13.80;1.00
46490;DHT22;32204;49.160;8.580;2023-08-07T00:41:44;13.80;90.70
46490;DHT22;32204;49.160;8.580;2023-08-07T00:44:10;13.80;1.00
46490;DHT22;32204;49.160;8.580;2023-08-07T00:46:36;13.80;1.00
46490;DHT22;32204;49.160;8.580;2023-08-07T00:49:02;13.70;1.00
46490;DHT22;32204;49.160;8.580;2023-08-07T00:51:28;13.80;99.90
46490;DHT22;32204;49.160;8.580;2023-08-07T00:53:54;13.70;99.90
46490;DHT22;32204;49.160;8.580;2023-08-07T00:56:20;13.70;1.00
46490;DHT22;32204;49.160;8.580;2023-08-07T00:58:46;13.70;99.90
46490;DHT22;32204;49.160;8.580;2023-08-07T01:01:12;13.70;1.00
46490;DHT22;32204;49.160;8.580;2023-08-07T01:03:38;13.70;1.00
46490;DHT22;32204;49.160;8.580;2023-08-07T01:06:03;13.70;99.90
46490;DHT22;32204;49.160;8.580;2023-08-07T01:08:30;13.70;99.90
46490;DHT22;32204;49.160;8.580;2023-08-07T01:11:22;13.70;99.90
46490;DHT22;32204;49.160;8.580;2023-08-07T01:14:02;13.70;1.00
46490;DHT22;32204;49.160;8.580;2023-08-07T01:19:18;13.70;1.00
46490;DHT22;32204;49.160;8.580;2023-08-07T01:21:47;13.70;1.00
46490;DHT22;32204;49.160;8.580;2023-08-07T01:24:13;13.70;99.90
46490;DHT22;32204;49.160;8.580;2023-08-07T01:26:39;13.70;99.90
46490;DHT22;32204;49.160;8.580;2023-08-07T01:29:17;13.70;1.00
46490;DHT22;32204;49.160;8.580;2023-08-07T01:31:49;13.70;1.00
46490;DHT22;32204;49.160;8.580;2023-08-07T01:34:20;13.70;99.90
46490;DHT22;32204;49.160;8.580;2023-08-07T01:36:48;13.70;99.90
46490;DHT22;32204;49.160;8.580;2023-08-07T01:39:15;13.60;99.90
46490;DHT22;32204;49.160;8.580;2023-08-07T01:41:41;13.60;1.00
46490;DHT22;32204;49.160;8.580;2023-08-07T01:44:07;13.60;1.00
46490;DHT22;32204;49.160;8.580;2023-08-07T01:46:33;13.60;81.80
46490;DHT22;32204;49.160;8.580;2023-08-07T01:48:58;13.50;99.90
46490;DHT22;32204;49.160;8.580;2023-08-07T01:51:24;13.60;99.80
46490;DHT22;32204;49.160;8.580;2023-08-07T01:53:49;13.60;99.90
46490;DHT22;32204;49.160;8.580;2023-08-07T01:56:15;13.60;1.00
46490;DHT22;32204;49.160;8.580;2023-08-07T01:58:40;13.50;1.00
46490;DHT22;32204;49.160;8.580;2023-08-07T02:01:06;13.60;99.90
46490;DHT22;32204;49.160;8.580;2023-08-07T02:03:31;13.60;1.00
46490;DHT22;32204;49.160;8.580;2023-08-07T02:05:57;13.60;54.10
46490;DHT22;32204;49.160;8.580;2023-08-07T02:08:23;13.60;26.20
46490;DHT22;32204;49.160;8.580;2023-08-07T02:10:48;13.60;99.90
46490;DHT22;32204;49.160;8.580;2023-08-07T02:13:14;13.60;99.90
46490;DHT22;32204;49.160;8.580;2023-08-07T02:15:40;13.50;1.00
46490;DHT22;32204;49.160;8.580;2023-08-07T02:18:05;13.60;99.90
46490;DHT22;32204;49.160;8.580;2023-08-07T02:20:31;13.50;97.00
46490;DHT22;32204;49.160;8.580;2023-08-07T02:22:57;13.60;99.90
46490;DHT22;32204;49.160;8.580;2023-08-07T02:25:22;13.50;1.00
46490;DHT22;32204;49.160;8.580;2023-08-07T02:27:48;13.50;99.90
46490;DHT22;32204;49.160;8.580;2023-08-07T02:30:14;13.50;99.90
46490;DHT22;32204;49.160;8.580;2023-08-07T02:32:39;13.50;1.00
46490;DHT22;32204;49.160;8.580;2023-08-07T02:35:07;13.50;1.00
46490;DHT22;32204;49.160;8.580;2023-08-07T02:37:33;13.50;99.90
46490;DHT22;32204;49.160;8.580;2023-08-07T02:39:59;13.50;1.00
46490;DHT22;32204;49.160;8.580;2023-08-07T02:42:24;13.50;99.90
46490;DHT22;32204;49.160;8.580;2023-08-07T02:44:50;13.50;99.90
46490;DHT22;32204;49.160;8.580;2023-08-07T02:47:16;13.50;15.10
46490;DHT22;32204;49.160;8.580;2023-08-07T02:49:41;13.50;99.90
46490;DHT22;32204;49.160;8.580;2023-08-07T02:52:07;13.60;1.00
46490;DHT22;32204;49.160;8.580;2023-08-07T02:54:32;13.60;1.00
46490;DHT22;32204;49.160;8.580;2023-08-07T02:56:58;13.60;1.00
46490;DHT22;32204;49.160;8.580;2023-08-07T02:59:24;13.60;54.00
46490;DHT22;32204;49.160;8.580;2023-08-07T03:01:50;13.60;99.90
46490;DHT22;32204;49.160;8.580;2023-08-07T03:04:15;13.60;1.00
46490;DHT22;32204;49.160;8.580;2023-08-07T03:06:41;13.60;99.90
46490;DHT22;32204;49.160;8.580;2023-08-07T03:09:07;13.60;1.00
46490;DHT22;32204;49.160;8.580;2023-08-07T03:11:33;13.60;1.00
46490;DHT22;32204;49.160;8.580;2023-08-07T03:13:58;13.60;1.00
46490;DHT22;32204;49.160;8.580;2023-08-07T03:16:24;13.60;1.00
46490;DHT22;32204;49.160;8.580;2023-08-07T03:18:49;13.60;1.00
46490;DHT22;32204;49.160;8.580;2023-08-07T03:21:15;13.60;1.00
46490;DHT22;32204;49.160;8.580;2023-08-07T03:23:41;13.70;99.90
46490;DHT22;32204;49.160;8.580;2023-08-07T03:26:11;13.70;99.90
46490;DHT22;32204;49.160;8.580;2023-08-07T03:28:37;13.60;99.90
46490;DHT22;32204;49.160;8.580;2023-08-07T03:31:03;13.70;99.90
46490;DHT22;32204;49.160;8.580;2023-08-07T03:33:29;13.60;99.90
46490;DHT22;32204;49.160;8.580;2023-08-07T03:35:55;13.60;1.00
46490;DHT22;32204;49.160;8.580;2023-08-07T03:38:20;13.60;25.20
46490;DHT22;32204;49.160;8.580;2023-08-07T03:40:46;13.60;1.00
46490;DHT22;32204;49.160;8.580;2023-08-07T03:43:12;13.70;99.90
46490;DHT22;32204;49.160;8.580;2023-08-07T03:45:38;13.60;99.90
46490;DHT22;32204;49.160;8.580;2023-08-07T03:48:04;13.70;99.90
46490;DHT22;32204;49.160;8.580;2023-08-07T03:50:30;13.70;99.90
46490;DHT22;32204;49.160;8.580;2023-08-07T03:52:56;13.70;99.90
46490;DHT22;32204;49.160;8.580;2023-08-07T03:55:21;13.70;99.90
46490;DHT22;32204;49.160;8.580;2023-08-07T03:57:47;13.80;99.90
46490;DHT22;32204;49.160;8.580;2023-08-07T04:00:15;13.80;99.90
46490;DHT22;32204;49.160;8.580;2023-08-07T04:02:40;13.80;99.90
46490;DHT22;32204;49.160;8.580;2023-08-07T04:05:06;13.80;99.90
46490;DHT22;32204;49.160;8.580;2023-08-07T04:07:32;13.80;1.00
46490;DHT22;32204;49.160;8.580;2023-08-07T04:09:58;13.80;1.00
46490;DHT22;32204;49.160;8.580;2023-08-07T04:12:24;13.80;99.90
46490;DHT22;32204;49.160;8.580;2023-08-07T04:14:49;13.80;99.90
46490;DHT22;32204;49.160;8.580;2023-08-07T04:17:15;13.80;99.90
46490;DHT22;32204;49.160;8.580;2023-08-07T04:19:41;13.80;99.90
46490;DHT22;32204;49.160;8.580;2023-08-07T04:22:06;13.80;99.90
46490;DHT22;32204;49.160;8.580;2023-08-07T04:24:32;13.80;99.90
46490;DHT22;32204;49.160;8.580;2023-08-07T04:26:58;13.70;99.90
46490;DHT22;32204;49.160;8.580;2023-08-07T04:29:24;13.70;99.90
46490;DHT22;32204;49.160;8.580;2023-08-07T04:31:49;13.70;1.00
46490;DHT22;32204;49.160;8.580;2023-08-07T04:34:15;13.60;99.90
46490;DHT22;32204;49.160;8.580;2023-08-07T04:36:41;13.60;99.90
46490;DHT22;32204;49.160;8.580;2023-08-07T04:39:06;13.60;99.90
46490;DHT22;32204;49.160;8.580;2023-08-07T04:41:32;13.50;1.00
46490;DHT22;32204;49.160;8.580;2023-08-07T04:43:58;13.50;79.30
46490;DHT22;32204;49.160;8.580;2023-08-07T04:46:23;13.50;99.90
46490;DHT22;32204;49.160;8.580;2023-08-07T04:48:49;13.60;86.00
46490;DHT22;32204;49.160;8.580;2023-08-07T04:51:15;13.60;99.90
46490;DHT22;32204;49.160;8.580;2023-08-07T04:53:41;13.60;1.00
46490;DHT22;32204;49.160;8.580;2023-08-07T04:56:06;13.60;1.00
46490;DHT22;32204;49.160;8.580;2023-08-07T04:58:32;13.60;99.90
46490;DHT22;32204;49.160;8.580;2023-08-07T05:00:59;13.60;99.90
46490;DHT22;32204;49.160;8.580;2023-08-07T05:03:25;13.60;1.00
46490;DHT22;32204;49.160;8.580;2023-08-07T05:05:58;13.60;99.90
46490;DHT22;32204;49.160;8.580;2023-08-07T05:08:24;13.70;1.00
46490;DHT22;32204;49.160;8.580;2023-08-07T05:10:49;13.70;99.90
46490;DHT22;32204;49.160;8.580;2023-08-07T05:13:15;13.70;99.90
46490;DHT22;32204;49.160;8.580;2023-08-07T05:15:40;13.70;99.90
46490;DHT22;32204;49.160;8.580;2023-08-07T05:18:06;13.70;99.90
46490;DHT22;32204;49.160;8.580;2023-08-07T05:20:32;13.70;1.00
46490;DHT22;32204;49.160;8.580;2023-08-07T05:22:57;13.70;15.70
46490;DHT22;32204;49.160;8.580;2023-08-07T05:25:23;13.70;1.80
46490;DHT22;32204;49.160;8.580;2023-08-07T05:27:49;13.70;1.00
46490;DHT22;32204;49.160;8.580;2023-08-07T05:30:15;13.80;1.00
46490;DHT22;32204;49.160;8.580;2023-08-07T05:32:40;13.80;99.90
46490;DHT22;32204;49.160;8.580;2023-08-07T05:35:07;13.80;99.90
46490;DHT22;32204;49.160;8.580;2023-08-07T05:37:33;13.80;1.00
46490;DHT22;32204;49.160;8.580;2023-08-07T05:39:59;13.90;99.90
46490;DHT22;32204;49.160;8.580;2023-08-07T05:42:25;14.00;99.90
46490;DHT22;32204;49.160;8.580;2023-08-07T05:44:52;14.00;1.00
46490;DHT22;32204;49.160;8.580;2023-08-07T05:47:18;14.00;99.90
46490;DHT22;32204;49.160;8.580;2023-08-07T05:49:43;13.90;1.00
46490;DHT22;32204;49.160;8.580;2023-08-07T05:52:09;13.90;1.00
46490;DHT22;32204;49.160;8.580;2023-08-07T05:54:35;13.80;99.90
46490;DHT22;32204;49.160;8.580;2023-08-07T05:57:00;13.80;47.80
46490;DHT22;32204;49.160;8.580;2023-08-07T05:59:26;13.90;1.00
46490;DHT22;32204;49.160;8.580;2023-08-07T06:01:52;13.90;1.00
46490;DHT22;32204;49.160;8.580;2023-08-07T06:04:18;13.90;99.90
46490;DHT22;32204;49.160;8.580;2023-08-07T06:06:44;13.90;99.90
46490;DHT22;32204;49.160;8.580;2023-08-07T06:09:11;14.00;99.90
46490;DHT22;32204;49.160;8.580;2023-08-07T06:11:36;14.00;1.00
46490;DHT22;32204;49.160;8.580;2023-08-07T06:14:02;13.90;1.00
46490;DHT22;32204;49.160;8.580;2023-08-07T06:16:28;13.90;99.90
46490;DHT22;32204;49.160;8.580;2023-08-07T06:18:53;14.00;1.00
46490;DHT22;32204;49.160;8.580;2023-08-07T06:21:19;14.00;1.00
46490;DHT22;32204;49.160;8.580;2023-08-07T06:23:47;14.10;99.90
46490;DHT22;32204;49.160;8.580;2023-08-07T06:26:13;14.10;99.90
46490;DHT22;32204;49.160;8.580;2023-08-07T06:28:39;14.20;99.90
46490;DHT22;32204;49.160;8.580;2023-08-07T06:31:06;14.30;99.90
46490;DHT22;32204;49.160;8.580;2023-08-07T06:33:33;14.30;20.90
46490;DHT22;32204;49.160;8.580;2023-08-07T06:36:00;14.30;1.00
46490;DHT22;32204;49.160;8.580;2023-08-07T06:38:26;14.30;99.90
46490;DHT22;32204;49.160;8.580;2023-08-07T06:40:51;14.30;1.00
46490;DHT22;32204;49.160;8.580;2023-08-07T06:43:17;14.30;99.90
46490;DHT22;32204;49.160;8.580;2023-08-07T06:45:45;14.30;99.90
46490;DHT22;32204;49.160;8.580;2023-08-07T06:48:11;14.30;99.90
46490;DHT22;32204;49.160;8.580;2023-08-07T06:50:37;14.30;99.90
46490;DHT22;32204;49.160;8.580;2023-08-07T06:53:03;14.30;99.90
46490;DHT22;32204;49.160;8.580;2023-08-07T06:55:28;14.30;1.00
46490;DHT22;32204;49.160;8.580;2023-08-07T06:57:54;14.20;1.00
46490;DHT22;32204;49.160;8.580;2023-08-07T07:00:19;14.30;1.00
46490;DHT22;32204;49.160;8.580;2023-08-07T07:02:45;14.30;1.00
46490;DHT22;32204;49.160;8.580;2023-08-07T07:05:11;14.40;1.00
46490;DHT22;32204;49.160;8.580;2023-08-07T07:07:37;14.30;1.00
46490;DHT22;32204;49.160;8.580;2023-08-07T07:10:03;14.50;1.00
46490;DHT22;32204;49.160;8.580;2023-08-07T07:12:29;14.50;1.00
46490;DHT22;32204;49.160;8.580;2023-08-07T07:14:55;14.50;99.90
46490;DHT22;32204;49.160;8.580;2023-08-07T07:17:21;14.50;99.90
46490;DHT22;32204;49.160;8.580;2023-08-07T07:19:46;14.50;99.90
46490;DHT22;32204;49.160;8.580;2023-08-07T07:22:12;14.50;99.90
46490;DHT22;32204;49.160;8.580;2023-08-07T07:24:38;14.50;99.90
46490;DHT22;32204;49.160;8.580;2023-08-07T07:27:04;14.50;1.00
46490;DHT22;32204;49.160;8.580;2023-08-07T07:29:30;14.60;99.90
46490;DHT22;32204;49.160;8.580;2023-08-07T07:31:55;14.60;1.00
46490;DHT22;32204;49.160;8.580;2023-08-07T07:34:21;14.60;99.90
46490;DHT22;32204;49.160;8.580;2023-08-07T07:36:47;14.60;99.90
46490;DHT22;32204;49.160;8.580;2023-08-07T07:39:13;14.70;99.90
46490;DHT22;32204;49.160;8.580;2023-08-07T07:41:39;14.70;99.90
46490;DHT22;32204;49.160;8.580;2023-08-07T07:44:04;14.70;99.90
46490;DHT22;32204;49.160;8.580;2023-08-07T07:46:30;14.70;99.90
46490;DHT22;32204;49.160;8.580;2023-08-07T07:48:57;14.80;99.90
46490;DHT22;32204;49.160;8.580;2023-08-07T07:51:23;14.80;1.00
46490;DHT22;32204;49.160;8.580;2023-08-07T07:53:49;14.80;1.00
46490;DHT22;32204;49.160;8.580;2023-08-07T07:56:14;14.80;42.70
46490;DHT22;32204;49.160;8.580;2023-08-07T07:58:40;14.80;1.00
46490;DHT22;32204;49.160;8.580;2023-08-07T08:01:07;14.90;30.00
46490;DHT22;32204;49.160;8.580;2023-08-07T08:03:33;14.80;99.90
46490;DHT22;32204;49.160;8.580;2023-08-07T08:05:58;14.90;99.90
46490;DHT22;32204;49.160;8.580;2023-08-07T08:08:24;14.90;99.90
46490;DHT22;32204;49.160;8.580;2023-08-07T08:10:50;15.00;99.90
46490;DHT22;32204;49.160;8.580;2023-08-07T08:13:17;15.00;99.90
46490;DHT22;32204;49.160;8.580;2023-08-07T08:15:43;15.10;99.90
46490;DHT22;32204;49.160;8.580;2023-08-07T08:18:09;15.10;1.00
46490;DHT22;32204;49.160;8.580;2023-08-07T08:20:35;15.20;1.00
46490;DHT22;32204;49.160;8.580;2023-08-07T08:23:01;15.30;1.00
46490;DHT22;32204;49.160;8.580;2023-08-07T08:25:27;15.60;99.90
46490;DHT22;32204;49.160;8.580;2023-08-07T08:27:52;15.70;99.90
46490;DHT22;32204;49.160;8.580;2023-08-07T08:30:18;15.90;99.90
46490;DHT22;32204;49.160;8.580;2023-08-07T08:32:43;16.10;99.90
46490;DHT22;32204;49.160;8.580;2023-08-07T08:35:09;16.20;99.90
46490;DHT22;32204;49.160;8.580;2023-08-07T08:37:35;16.50;99.90
46490;DHT22;32204;49.160;8.580;2023-08-07T08:40:01;16.50;1.00
46490;DHT22;32204;49.160;8.580;2023-08-07T08:42:26;16.60;1.00
46490;DHT22;32204;49.160;8.580;2023-08-07T08:44:56;16.70;1.00
46490;DHT22;32204;49.160;8.580;2023-08-07T08:47:24;16.80;1.00
46490;DHT22;32204;49.160;8.580;2023-08-07T08:49:54;17.00;1.00
46490;DHT22;32204;49.160;8.580;2023-08-07T08:52:21;16.80;1.00
46490;DHT22;32204;49.160;8.580;2023-08-07T08:54:47;16.70;1.00
46490;DHT22;32204;49.160;8.580;2023-08-07T08:57:13;16.90;1.00
46490;DHT22;32204;49.160;8.580;2023-08-07T08:59:41;16.80;1.00
46490;DHT22;32204;49.160;8.580;2023-08-07T09:02:07;16.80;1.00
46490;DHT22;32204;49.160;8.580;2023-08-07T09:04:33;17.20;1.00
46490;DHT22;32204;49.160;8.580;2023-08-07T09:07:00;17.50;1.00
46490;DHT22;32204;49.160;8.580;2023-08-07T09:09:26;17.70;99.90
46490;DHT22;32204;49.160;8.580;2023-08-07T09:11:52;17.70;99.90
46490;DHT22;32204;49.160;8.580;2023-08-07T09:14:22;17.80;99.90
46490;DHT22;32204;49.160;8.580;2023-08-07T09:16:48;18.00;99.90
46490;DHT22;32204;49.160;8.580;2023-08-07T09:19:14;17.90;99.90
46490;DHT22;32204;49.160;8.580;2023-08-07T09:21:40;17.80;99.90
46490;DHT22;32204;49.160;8.580;2023-08-07T09:24:06;17.70;99.90
46490;DHT22;32204;49.160;8.580;2023-08-07T09:26:32;17.80;99.90
46490;DHT22;32204;49.160;8.580;2023-08-07T09:29:02;18.00;99.90
46490;DHT22;32204;49.160;8.580;2023-08-07T09:31:28;18.10;99.90
46490;DHT22;32204;49.160;8.580;2023-08-07T09:34:01;18.50;99.90
46490;DHT22;32204;49.160;8.580;2023-08-07T09:36:30;18.40;99.90
46490;DHT22;32204;49.160;8.580;2023-08-07T09:38:55;18.70;99.90
46490;DHT22;32204;49.160;8.580;2023-08-07T09:41:21;18.60;99.90
46490;DHT22;32204;49.160;8.580;2023-08-07T09:43:47;18.30;99.90
46490;DHT22;32204;49.160;8.580;2023-08-07T09:46:12;18.00;99.90
46490;DHT22;32204;49.160;8.580;2023-08-07T09:48:43;18.10;99.90
46490;DHT22;32204;49.160;8.580;2023-08-07T09:51:09;18.20;99.90
46490;DHT22;32204;49.160;8.580;2023-08-07T09:53:35;18.20;99.90
46490;DHT22;32204;49.160;8.580;2023-08-07T09:56:01;18.10;99.90
46490;DHT22;32204;49.160;8.580;2023-08-07T09:58:28;18.10;99.90
46490;DHT22;32204;49.160;8.580;2023-08-07T10:00:54;18.00;99.90
46490;DHT22;32204;49.160;8.580;2023-08-07T10:03:25;18.00;99.90
46490;DHT22;32204;49.160;8.580;2023-08-07T10:05:51;17.90;99.90
46490;DHT22;32204;49.160;8.580;2023-08-07T10:08:16;18.00;99.90
46490;DHT22;32204;49.160;8.580;2023-08-07T10:10:43;18.10;99.90
46490;DHT22;32204;49.160;8.580;2023-08-07T10:13:12;18.30;99.90
46490;DHT22;32204;49.160;8.580;2023-08-07T10:15:38;18.10;99.90
46490;DHT22;32204;49.160;8.580;2023-08-07T10:18:05;18.10;99.90
46490;DHT22;32204;49.160;8.580;2023-08-07T10:20:32;18.30;99.90
46490;DHT22;32204;49.160;8.580;2023-08-07T10:23:02;18.20;99.90
46490;DHT22;32204;49.160;8.580;2023-08-07T10:25:30;18.40;99.90
46490;DHT22;32204;49.160;8.580;2023-08-07T10:27:57;18.30;99.90
46490;DHT22;32204;49.160;8.580;2023-08-07T10:30:24;18.30;99.90
46490;DHT22;32204;49.160;8.580;2023-08-07T10:32:51;18.40;99.90
46490;DHT22;32204;49.160;8.580;2023-08-07T10:35:30;18.30;99.90
46490;DHT22;32204;49.160;8.580;2023-08-07T10:38:05;18.30;99.90
46490;DHT22;32204;49.160;8.580;2023-08-07T10:40:32;18.20;99.90
46490;DHT22;32204;49.160;8.580;2023-08-07T10:43:00;18.20;99.90
46490;DHT22;32204;49.160;8.580;2023-08-07T10:45:36;18.00;99.90
46490;DHT22;32204;49.160;8.580;2023-08-07T10:50:32;17.90;99.90
46490;DHT22;32204;49.160;8.580;2023-08-07T10:53:04;17.80;99.90
46490;DHT22;32204;49.160;8.580;2023-08-07T10:55:45;17.90;99.90
46490;DHT22;32204;49.160;8.580;2023-08-07T10:58:24;17.80;99.90
46490;DHT22;32204;49.160;8.580;2023-08-07T11:00:52;17.70;99.90
46490;DHT22;32204;49.160;8.580;2023-08-07T11:03:36;17.70;1.00
46490;DHT22;32204;49.160;8.580;2023-08-07T11:06:02;17.80;1.00
46490;DHT22;32204;49.160;8.580;2023-08-07T11:08:27;17.90;1.00
46490;DHT22;32204;49.160;8.580;2023-08-07T11:10:54;17.80;1.00
46490;DHT22;32204;49.160;8.580;2023-08-07T11:13:20;17.80;1.00
46490;DHT22;32204;49.160;8.580;2023-08-07T11:15:46;17.80;1.00
46490;DHT22;32204;49.160;8.580;2023-08-07T11:18:13;17.60;1.00
46490;DHT22;32204;49.160;8.580;2023-08-07T11:20:39;17.60;99.90
46490;DHT22;32204;49.160;8.580;2023-08-07T11:23:05;17.70;99.90
46490;DHT22;32204;49.160;8.580;2023-08-07T11:25:31;17.70;52.40
46490;DHT22;32204;49.160;8.580;2023-08-07T11:27:57;17.70;99.90
46490;DHT22;32204;49.160;8.580;2023-08-07T11:30:23;17.80;99.90
46490;DHT22;32204;49.160;8.580;2023-08-07T11:32:49;17.80;99.90
46490;DHT22;32204;49.160;8.580;2023-08-07T11:35:15;17.80;99.90
46490;DHT22;32204;49.160;8.580;2023-08-07T11:37:47;17.80;99.90
46490;DHT22;32204;49.160;8.580;2023-08-07T11:40:13;17.80;99.90
46490;DHT22;32204;49.160;8.580;2023-08-07T11:42:40;17.70;71.40
46490;DHT22;32204;49.160;8.580;2023-08-07T11:45:07;17.60;4.40
46490;DHT22;32204;49.160;8.580;2023-08-07T11:47:33;17.60;40.30
46490;DHT22;32204;49.160;8.580;2023-08-07T11:49:59;17.60;99.90
46490;DHT22;32204;49.160;8.580;2023-08-07T11:52:25;17.70;99.90
46490;DHT22;32204;49.160;8.580;2023-08-07T11:54:52;18.00;99.90
46490;DHT22;32204;49.160;8.580;2023-08-07T11:57:20;17.90;27.70
46490;DHT22;32204;49.160;8.580;2023-08-07T11:59:52;17.90;99.90
46490;DHT22;32204;49.160;8.580;2023-08-07T12:02:23;17.90;1.00
46490;DHT22;32204;49.160;8.580;2023-08-07T12:04:49;18.00;99.90
46490;DHT22;32204;49.160;8.580;2023-08-07T12:07:17;18.20;80.90
46490;DHT22;32204;49.160;8.580;2023-08-07T12:09:45;18.30;1.00
46490;DHT22;32204;49.160;8.580;2023-08-07T12:12:11;18.50;53.30
46490;DHT22;32204;49.160;8.580;2023-08-07T12:14:38;18.50;1.00
46490;DHT22;32204;49.160;8.580;2023-08-07T12:17:04;18.50;1.00
46490;DHT22;32204;49.160;8.580;2023-08-07T12:19:38;18.70;19.80
46490;DHT22;32204;49.160;8.580;2023-08-07T12:22:06;18.70;1.00
46490;DHT22;32204;49.160;8.580;2023-08-07T12:24:32;18.80;1.00
46490;DHT22;32204;49.160;8.580;2023-08-07T12:26:58;18.90;1.00
46490;DHT22;32204;49.160;8.580;2023-08-07T12:29:23;19.00;1.00
46490;DHT22;32204;49.160;8.580;2023-08-07T12:31:54;19.00;1.00
46490;DHT22;32204;49.160;8.580;2023-08-07T12:34:20;19.00;1.00
46490;DHT22;32204;49.160;8.580;2023-08-07T12:36:45;19.00;1.00
46490;DHT22;32204;49.160;8.580;2023-08-07T12:39:12;19.10;1.00
46490;DHT22;32204;49.160;8.580;2023-08-07T12:41:38;19.10;1.00
46490;DHT22;32204;49.160;8.580;2023-08-07T12:44:04;19.20;1.00
46490;DHT22;32204;49.160;8.580;2023-08-07T12:46:29;19.30;1.00
46490;DHT22;32204;49.160;8.580;2023-08-07T12:48:55;19.40;99.90
46490;DHT22;32204;49.160;8.580;2023-08-07T12:51:20;19.40;99.90
46490;DHT22;32204;49.160;8.580;2023-08-07T12:53:46;19.70;99.90
46490;DHT22;32204;49.160;8.580;2023-08-07T12:56:12;19.90;99.90
46490;DHT22;32204;49.160;8.580;2023-08-07T12:58:38;19.90;99.90
46490;DHT22;32204;49.160;8.580;2023-08-07T13:01:04;20.10;99.90
46490;DHT22;32204;49.160;8.580;2023-08-07T13:03:30;20.10;99.90
46490;DHT22;32204;49.160;8.580;2023-08-07T13:05:55;20.10;99.90
46490;DHT22;32204;49.160;8.580;2023-08-07T13:08:21;20.10;99.90
46490;DHT22;32204;49.160;8.580;2023-08-07T13:10:47;20.00;99.90
46490;DHT22;32204;49.160;8.580;2023-08-07T13:13:12;20.00;99.90
46490;DHT22;32204;49.160;8.580;2023-08-07T13:15:38;20.20;99.90
46490;DHT22;32204;49.160;8.580;2023-08-07T13:18:04;20.50;99.90
46490;DHT22;32204;49.160;8.580;2023-08-07T13:20:29;20.50;99.90
46490;DHT22;32204;49.160;8.580;2023-08-07T13:22:59;20.30;99.90
46490;DHT22;32204;49.160;8.580;2023-08-07T13:25:25;20.20;99.90
46490;DHT22;32204;49.160;8.580;2023-08-07T13:27:51;20.00;99.90
46490;DHT22;32204;49.160;8.580;2023-08-07T13:30:17;19.90;99.90
46490;DHT22;32204;49.160;8.580;2023-08-07T13:32:42;19.70;99.90
46490;DHT22;32204;49.160;8.580;2023-08-07T13:35:08;19.60;99.90
46490;DHT22;32204;49.160;8.580;2023-08-07T13:37:34;19.60;99.90
46490;DHT22;32204;49.160;8.580;2023-08-07T13:40:03;19.40;99.90
46490;DHT22;32204;49.160;8.580;2023-08-07T13:42:29;19.40;99.90
46490;DHT22;32204;49.160;8.580;2023-08-07T13:44:55;19.50;99.90
46490;DHT22;32204;49.160;8.580;2023-08-07T13:47:21;19.60;99.90
46490;DHT22;32204;49.160;8.580;2023-08-07T13:49:47;19.80;99.90
46490;DHT22;32204;49.160;8.580;2023-08-07T13:52:13;20.20;99.90
46490;DHT22;32204;49.160;8.580;2023-08-07T13:54:38;20.40;99.90
46490;DHT22;32204;49.160;8.580;2023-08-07T13:57:05;20.80;99.90
46490;DHT22;32204;49.160;8.580;2023-08-07T13:59:30;21.10;99.90
46490;DHT22;32204;49.160;8.580;2023-08-07T14:01:56;21.30;99.90
46490;DHT22;32204;49.160;8.580;2023-08-07T14:04:22;21.60;99.90
46490;DHT22;32204;49.160;8.580;2023-08-07T14:06:48;21.70;99.90
46490;DHT22;32204;49.160;8.580;2023-08-07T14:09:13;21.70;99.90
46490;DHT22;32204;49.160;8.580;2023-08-07T14:11:39;21.60;93.20
46490;DHT22;32204;49.160;8.580;2023-08-07T14:14:05;21.50;93.20
46490;DHT22;32204;49.160;8.580;2023-08-07T14:16:30;21.70;85.50
46490;DHT22;32204;49.160;8.580;2023-08-07T14:18:57;21.80;77.30
46490;DHT22;32204;49.160;8.580;2023-08-07T14:21:23;21.90;76.70
46490;DHT22;32204;49.160;8.580;2023-08-07T14:23:48;21.80;64.70
46490;DHT22;32204;49.160;8.580;2023-08-07T14:26:15;21.70;58.00
46490;DHT22;32204;49.160;8.580;2023-08-07T14:28:41;21.50;56.00
46490;DHT22;32204;49.160;8.580;2023-08-07T14:31:08;21.10;56.20
46490;DHT22;32204;49.160;8.580;2023-08-07T14:33:35;20.90;58.20
46490;DHT22;32204;49.160;8.580;2023-08-07T14:36:01;20.80;58.40
46490;DHT22;32204;49.160;8.580;2023-08-07T14:38:27;20.60;63.10
46490;DHT22;32204;49.160;8.580;2023-08-07T14:40:53;20.50;64.20
46490;DHT22;32204;49.160;8.580;2023-08-07T14:43:18;20.30;68.30
46490;DHT22;32204;49.160;8.580;2023-08-07T14:45:44;20.30;73.00
46490;DHT22;32204;49.160;8.580;2023-08-07T14:48:10;20.20;77.80
46490;DHT22;32204;49.160;8.580;2023-08-07T14:50:35;20.10;81.30
46490;DHT22;32204;49.160;8.580;2023-08-07T14:53:01;20.30;88.50
46490;DHT22;32204;49.160;8.580;2023-08-07T14:55:27;20.70;84.70
46490;DHT22;32204;49.160;8.580;2023-08-07T14:57:52;21.00;83.30
46490;DHT22;32204;49.160;8.580;2023-08-07T15:00:18;21.50;78.70
46490;DHT22;32204;49.160;8.580;2023-08-07T15:02:45;21.70;71.10
46490;DHT22;32204;49.160;8.580;2023-08-07T15:05:11;21.80;67.70
46490;DHT22;32204;49.160;8.580;2023-08-07T15:07:36;21.80;59.30
46490;DHT22;32204;49.160;8.580;2023-08-07T15:10:02;21.70;59.60
46490;DHT22;32204;49.160;8.580;2023-08-07T15:12:28;21.80;61.80
46490;DHT22;32204;49.160;8.580;2023-08-07T15:14:53;21.90;58.70
46490;DHT22;32204;49.160;8.580;2023-08-07T15:17:19;21.90;60.60
46490;DHT22;32204;49.160;8.580;2023-08-07T15:19:45;22.00;59.80
46490;DHT22;32204;49.160;8.580;2023-08-07T15:22:10;21.80;55.70
46490;DHT22;32204;49.160;8.580;2023-08-07T15:24:36;21.70;56.70
46490;DHT22;32204;49.160;8.580;2023-08-07T15:27:02;21.80;59.30
46490;DHT22;32204;49.160;8.580;2023-08-07T15:29:27;21.80;58.20
46490;DHT22;32204;49.160;8.580;2023-08-07T15:31:53;22.10;63.60
46490;DHT22;32204;49.160;8.580;2023-08-07T15:34:19;22.30;51.70